KQDK/QDK METAR and TAF weather

Enter ICAO airport designator
Station Type Date Time Source
KQDK METAR 2009/02/21 12:55 UTC NOAA

KQDK 211255Z 16004KT 7SM FEW090 FEW200 09/05 A3014 RMK SLP208


Station Type Date Time Source
KQDK Decoded METAR 2009/02/21 12:55 UTC NOAA

Station name not available
Feb 21, 2009 - 07:55 AM EST / 2009.02.21 1255 UTC
Wind: from the SSE (160 degrees) at 5 MPH (4 KT):0
Visibility: 7 mile(s):0
Sky conditions: mostly clear
Temperature: 48 F (9 C)
Dew Point: 41 F (5 C)
Relative Humidity: 75%
Pressure (altimeter): 30.14 in. Hg (1020 hPa)
ob: KQDK 211255Z 16004KT 7SM FEW090 FEW200 09/05 A3014 RMK SLP208
cycle: 13

Station Type Date Time Source
KQDK TAF UTC NOAA

Error!


Example: see airport list